METAR Data
IDs: Format: Raw Decoded Include TAF

Data at: 0145 UTC 24 Sep 2018

KLVN 240135Z AUTO 14004KT 10SM CLR 18/12 A2996 RMK AO2
KLVN 240115Z AUTO 13003KT 10SM CLR 18/12 A2995 RMK AO2
KLVN 240055Z AUTO 14005KT 10SM CLR 19/12 A2995 RMK AO2
KLVN 240035Z AUTO 14007KT 10SM CLR 20/12 A2994 RMK AO2
KLVN 240015Z AUTO 14007KT 10SM CLR 21/12 A2995 RMK AO2
KLVN 232355Z AUTO 14007KT 10SM CLR 22/12 A2995 RMK AO2
KLVN 232335Z AUTO 14006KT 10SM CLR 22/12 A2995 RMK AO2
KLVN 232315Z AUTO 15006KT 10SM CLR 23/12 A2994 RMK AO2
KLVN 232255Z AUTO 15008KT 10SM CLR 24/12 A2994 RMK AO2
KLVN 232235Z AUTO 15010G16KT 10SM CLR 24/11 A2993 RMK AO2
KLVN 232215Z AUTO 15009G14KT 10SM CLR 25/11 A2994 RMK AO2
KLVN 232155Z AUTO 14006KT 10SM CLR 26/12 A2994 RMK AO2
KLVN 232135Z AUTO 16009G14KT 10SM CLR 25/11 A2995 RMK AO2
KLVN 232115Z AUTO 17009G15KT 10SM CLR 25/11 A2996 RMK AO2
KLVN 232055Z AUTO 16008KT 10SM CLR 25/12 A2996 RMK AO2
KLVN 232035Z AUTO 15007KT 10SM CLR 25/12 A2996 RMK AO2
KLVN 232015Z AUTO 16009G16KT 10SM CLR 25/12 A2997 RMK AO2
KLVN 231955Z AUTO 16007G15KT 10SM CLR 25/11 A2997 RMK AO2
KLVN 231935Z AUTO 15010G16KT 10SM CLR 25/12 A2998 RMK AO2
KLVN 231915Z AUTO 13012G15KT 10SM CLR 24/12 A2999 RMK AO2
KLVN 231855Z AUTO 15009G15KT 10SM CLR 24/12 A3000 RMK AO2
KLVN 231835Z AUTO 18007KT 10SM CLR 24/12 A3002 RMK AO2
KLVN 231815Z AUTO 15007G14KT 10SM CLR 24/13 A3003 RMK AO2
KLVN 231755Z AUTO 17006KT 10SM CLR 23/13 A3003 RMK AO2 P0001 P0001
KLVN 231735Z AUTO 20007KT 10SM CLR 23/13 A3004 RMK AO2 P0001 P0001
KLVN 231715Z AUTO 19008KT 10SM CLR 22/12 A3005 RMK AO2 P0001 P0001
KLVN 231655Z AUTO 17005KT 10SM CLR 22/12 A3005 RMK AO2
KLVN 231635Z AUTO 20005KT 10SM CLR 22/12 A3005 RMK AO2
KLVN 231615Z AUTO 21003KT 10SM CLR 21/12 A3006 RMK AO2
KLVN 231555Z AUTO 19006KT 10SM CLR 21/12 A3006 RMK AO2
KLVN 231535Z AUTO 20008KT 10SM CLR 20/12 A3006 RMK AO2
KLVN 231515Z AUTO 19006KT 10SM CLR 19/12 A3006 RMK AO2
KLVN 231455Z AUTO 18008KT 10SM CLR 18/12 A3006 RMK AO2
KLVN 231435Z AUTO 18006KT 10SM CLR 16/12 A3005 RMK AO2
KLVN 231415Z AUTO 16004KT 10SM CLR 15/12 A3005 RMK AO2
KLVN 231355Z AUTO 17004KT 10SM CLR 14/11 A3006 RMK AO2
KLVN 231335Z AUTO 00000KT 10SM CLR 13/11 A3006 RMK AO2
KLVN 231315Z AUTO 00000KT 10SM CLR 12/12 A3006 RMK AO2
KLVN 231255Z AUTO 00000KT 10SM CLR 11/11 A3006 RMK AO2
KLVN 231235Z AUTO 00000KT 10SM CLR 11/11 A3006 RMK AO2
KLVN 231215Z AUTO 00000KT 10SM CLR 11/11 A3006 RMK AO2
KLVN 231155Z AUTO 00000KT 10SM CLR 11/10 A3006 RMK AO2
KLVN 231135Z AUTO 00000KT 10SM CLR 10/10 A3006 RMK AO2
KLVN 231115Z AUTO 00000KT 10SM CLR 10/10 A3006 RMK AO2
KLVN 231055Z AUTO 00000KT 10SM CLR 10/10 A3006 RMK AO2
KLVN 231035Z AUTO 00000KT 10SM CLR 09/09 A3006 RMK AO2
KLVN 231015Z AUTO 00000KT 10SM CLR 10/10 A3005 RMK AO2
KLVN 230955Z AUTO 00000KT 10SM CLR 10/09 A3006 RMK AO2
KLVN 230935Z AUTO 00000KT 10SM CLR 09/09 A3005 RMK AO2
KLVN 230915Z AUTO 00000KT 10SM CLR 09/09 A3006 RMK AO2
KLVN 230855Z AUTO 00000KT 10SM CLR 09/09 A3006 RMK AO2
KLVN 230835Z AUTO 00000KT 10SM CLR 11/09 A3006 RMK AO2
KLVN 230815Z AUTO 18003KT 10SM CLR 11/09 A3006 RMK AO2
KLVN 230755Z AUTO 00000KT 10SM 12/09 A3006 RMK AO2
KLVN 230735Z AUTO 19004KT 10SM 13/09 A3006 RMK AO2
KLVN 230715Z AUTO 00000KT 10SM CLR 13/09 A3007 RMK AO2
KLVN 230655Z AUTO 18005KT 10SM BKN100 13/09 A3006 RMK AO2
KLVN 230635Z AUTO 19005KT 10SM BKN100 13/09 A3007 RMK AO2
KLVN 230615Z AUTO 19005KT 10SM SCT100 13/09 A3007 RMK AO2
KLVN 230555Z AUTO 18005KT 10SM OVC100 14/09 A3007 RMK AO2
KLVN 230535Z AUTO 19004KT 10SM BKN100 14/09 A3008 RMK AO2
KLVN 230515Z AUTO 17004KT 10SM SCT100 14/09 A3008 RMK AO2
KLVN 230455Z AUTO 17003KT 10SM OVC100 14/09 A3008 RMK AO2
KLVN 230435Z AUTO 19003KT 10SM OVC110 14/09 A3008 RMK AO2
KLVN 230415Z AUTO 19004KT 10SM SCT110 13/09 A3008 RMK AO2
KLVN 230355Z AUTO 18006KT 10SM CLR 14/09 A3007 RMK AO2
KLVN 230335Z AUTO 18006KT 10SM CLR 13/09 A3007 RMK AO2
KLVN 230315Z AUTO 17003KT 10SM SCT110 14/09 A3007 RMK AO2
KLVN 230255Z AUTO 16003KT 10SM BKN110 14/09 A3007 RMK AO2
KLVN 230235Z AUTO 14003KT 10SM 13/09 A3007 RMK AO2
KLVN 230215Z AUTO 15003KT 10SM CLR 13/09 A3007 RMK AO2
KLVN 230155Z AUTO 15005KT 10SM SCT110 14/10 A3007 RMK AO2
KLVN 230135Z AUTO 16004KT 10SM CLR 14/10 A3007 RMK AO2
KLVN 230115Z AUTO 16006KT 10SM CLR 14/10 A3006 RMK AO2
KLVN 230055Z AUTO 15004KT 7SM CLR 14/10 A3006 RMK AO2
KLVN 230035Z AUTO 16005KT 10SM CLR 15/10 A3007 RMK AO2
KLVN 230015Z AUTO 16005KT 10SM CLR 16/10 A3008 RMK AO2
KLVN 222355Z AUTO 17005KT 10SM CLR 17/09 A3008 RMK AO2
KLVN 222335Z AUTO 17006KT 10SM CLR 18/09 A3008 RMK AO2
KLVN 222315Z AUTO 18007KT 10SM CLR 19/09 A3008 RMK AO2
KLVN 222255Z AUTO 18005KT 10SM CLR 19/09 A3008 RMK AO2
KLVN 222235Z AUTO 17009KT 10SM CLR 19/09 A3009 RMK AO2
KLVN 222215Z AUTO 16010KT 10SM CLR 20/09 A3009 RMK AO2
KLVN 222155Z AUTO 18006KT 10SM CLR 20/09 A3010 RMK AO2
KLVN 222135Z AUTO 18009G14KT 10SM CLR 20/09 A3011 RMK AO2
KLVN 222115Z AUTO 16010KT 10SM CLR 20/09 A3011 RMK AO2
KLVN 222055Z AUTO 18009KT 10SM CLR 19/09 A3012 RMK AO2
KLVN 222035Z AUTO 17011G14KT 10SM CLR 19/08 A3013 RMK AO2
KLVN 222015Z AUTO 16008KT 10SM CLR 20/09 A3014 RMK AO2
KLVN 221955Z AUTO 19008KT 10SM CLR 19/08 A3014 RMK AO2
KLVN 221935Z AUTO 20006KT 10SM CLR 19/08 A3015 RMK AO2
KLVN 221915Z AUTO 17007KT 143V203 10SM CLR 18/08 A3017 RMK AO2
KLVN 221855Z AUTO 16006KT 10SM CLR 18/08 A3018 RMK AO2 P0001 P0001
KLVN 221835Z AUTO 18006G15KT 10SM CLR 18/08 A3020 RMK AO2 P0001 P0001
KLVN 221815Z AUTO 17010G15KT 10SM CLR 17/07 A3021 RMK AO2 P0001 P0001
KLVN 221755Z AUTO 17006G17KT 10SM CLR 17/07 A3022 RMK AO2
KLVN 221735Z AUTO 19013G16KT 10SM CLR 17/06 A3023 RMK AO2
KLVN 221715Z AUTO 18010G14KT 10SM CLR 17/06 A3024 RMK AO2
KLVN 221655Z AUTO 19010KT 163V233 10SM CLR 16/06 A3025 RMK AO2
KLVN 221635Z AUTO 18010G16KT 10SM CLR 16/05 A3026 RMK AO2
KLVN 221615Z AUTO 18009G17KT 10SM CLR 15/05 A3028 RMK AO2
KLVN 221555Z AUTO 19010G15KT 10SM CLR 14/05 A3028 RMK AO2
KLVN 221535Z AUTO 17012G17KT 10SM CLR 14/05 A3028 RMK AO2
KLVN 221515Z AUTO 17012G19KT 10SM CLR 13/06 A3028 RMK AO2
KLVN 221455Z AUTO 18007KT 10SM CLR 13/07 A3029 RMK AO2
KLVN 221435Z AUTO 16006KT 10SM CLR 12/07 A3029 RMK AO2
KLVN 221415Z AUTO 17007KT 10SM CLR 11/07 A3029 RMK AO2
KLVN 221355Z AUTO 17005KT 10SM CLR 11/07 A3030 RMK AO2